KLBF

North Platte Regional Lee Bird Field Airport

North Platte, Nebraska, USA
METAR KLBF 161453Z AUTO 00000KT 10SM CLR 01/M02 A2999 RMK AO2 SLP170 T00111022 56015
Observed Flight Rules
Nov-16 @ 14:53 UTC (an hour ago) Visual Flight Rules
Visibility Clouds
10 miles
  • Clear skies
Temperatures Readings
Current 1°C / 34°F
Dewpoint -2°C / 28°F
Humidity 81%
Altimeter 29.99" Hg
Pressure 1017 hPa
Elevation 847
METAR KLBF 161453Z AUTO 00000KT 10SM CLR 01/M02 A2999 RMK AO2 SLP170 T00111022 56015
Observed Flight Rules
Nov-16 @ 14:53 UTC
(an hour ago)
VFR
Clouds
  • Clear skies
Temperature Dewpoint
1°C / 34°F -2°C / 28°F
Humidity Altimeter Pressure
81% 29.99" Hg 1017 hPa